Time;durP1;ratioP1;P1;durP2;ratioP2;P2;SDS_P1;SDS_P2;PMS_P1;PMS_P2;Temp;Humidity;BMP_temperature;BMP_pressure;BME280_temperature;BME280_humidity;BME280_pressure;Samples;Min_cycle;Max_cycle;Signal;HPM_P1;HPM_P2
2022/11/06 00:00:56;;;;;;;9.38;4.57;;;10.80;99.90;;;;;;5048698;28;20044;-76
2022/11/06 00:03:23;;;;;;;13.18;5.18;;;10.70;99.90;;;;;;5049506;28;20045;-75
2022/11/06 00:08:39;;;;;;;9.68;4.60;;;10.60;99.90;;;;;;5051710;28;20056;-76
2022/11/06 00:11:14;;;;;;;7.18;4.75;;;10.70;99.90;;;;;;5049044;28;20129;-77
2022/11/06 00:13:40;;;;;;;10.05;5.63;;;10.80;99.90;;;;;;5050122;28;20178;-77
2022/11/06 00:16:09;;;;;;;5.28;4.78;;;10.70;99.90;;;;;;5045691;28;20049;-77
2022/11/06 00:18:36;;;;;;;5.45;4.55;;;10.70;99.90;;;;;;5042619;28;20083;-77
2022/11/06 00:21:13;;;;;;;6.68;4.60;;;10.70;99.90;;;;;;5052557;28;20037;-77
2022/11/06 00:23:40;;;;;;;8.38;5.03;;;10.60;99.90;;;;;;5046001;28;20053;-78
2022/11/06 00:26:13;;;;;;;15.35;6.38;;;10.60;99.90;;;;;;5047475;28;20048;-78
2022/11/06 00:28:40;;;;;;;5.88;5.28;;;10.50;99.90;;;;;;5047639;28;20052;-78
2022/11/06 00:31:09;;;;;;;8.95;5.50;;;10.50;99.90;;;;;;5042434;28;20052;-79
2022/11/06 00:33:35;;;;;;;8.70;4.93;;;10.40;99.90;;;;;;5048033;28;20080;-78
2022/11/06 00:36:10;;;;;;;7.57;5.40;;;10.40;99.90;;;;;;5050735;28;20056;-78
2022/11/06 00:38:36;;;;;;;7.85;5.63;;;10.40;99.90;;;;;;5042921;28;20067;-77
2022/11/06 00:41:04;;;;;;;10.95;5.90;;;10.30;99.90;;;;;;5050903;28;20040;-77
2022/11/06 00:43:29;;;;;;;7.00;5.57;;;10.30;99.90;;;;;;5048309;28;20048;-77
2022/11/06 00:46:02;;;;;;;9.93;5.65;;;10.30;99.90;;;;;;5049232;28;20048;-79
2022/11/06 00:48:28;;;;;;;9.30;6.03;;;10.20;99.90;;;;;;5052351;28;20130;-77
2022/11/06 00:50:54;;;;;;;7.07;5.78;;;10.20;99.90;;;;;;5054433;28;20129;-78
2022/11/06 00:53:19;;;;;;;8.40;6.55;;;10.20;99.90;;;;;;5050414;28;20717;-78
2022/11/06 00:55:45;;;;;;;10.13;7.40;;;10.20;99.90;;;;;;5042541;28;20048;-76
2022/11/06 00:58:10;;;;;;;9.10;5.47;;;10.10;99.90;;;;;;5047021;28;20559;-79
2022/11/06 01:00:36;;;;;;;8.40;6.03;;;10.10;99.90;;;;;;5047367;28;20131;-76
2022/11/06 01:03:02;;;;;;;9.32;7.22;;;10.10;99.90;;;;;;5042503;28;20695;-76
2022/11/06 01:05:27;;;;;;;9.70;6.88;;;10.10;99.90;;;;;;5042384;28;20496;-76
2022/11/06 01:07:53;;;;;;;10.88;6.88;;;10.10;99.90;;;;;;5048437;28;20131;-77
2022/11/06 01:10:19;;;;;;;9.95;7.07;;;10.00;99.90;;;;;;5042368;28;20044;-77
2022/11/06 01:12:44;;;;;;;10.77;8.15;;;10.00;99.90;;;;;;5047670;28;21025;-77
2022/11/06 01:15:10;;;;;;;11.85;6.78;;;10.00;99.90;;;;;;5051600;28;20074;-76
2022/11/06 01:17:36;;;;;;;10.63;7.55;;;10.00;99.90;;;;;;5047326;28;20044;-77
2022/11/06 01:20:03;;;;;;;13.70;8.15;;;10.00;99.90;;;;;;5046932;28;20084;-77
2022/11/06 01:22:29;;;;;;;11.63;8.10;;;10.00;99.90;;;;;;5045069;28;20925;-76
2022/11/06 01:24:55;;;;;;;11.05;7.40;;;10.00;99.90;;;;;;5049112;28;20057;-76
2022/11/06 01:27:20;;;;;;;11.73;7.50;;;10.00;99.90;;;;;;5042373;28;20617;-76
2022/11/06 01:29:46;;;;;;;10.30;7.28;;;10.00;99.90;;;;;;5053563;28;20049;-77
2022/11/06 01:32:11;;;;;;;8.85;6.82;;;10.00;99.90;;;;;;5050547;28;20044;-77
2022/11/06 01:34:37;;;;;;;10.95;7.05;;;10.00;99.90;;;;;;5052533;28;20106;-76
2022/11/06 01:37:03;;;;;;;10.20;7.65;;;10.00;99.90;;;;;;5048158;28;20051;-76
2022/11/06 01:39:29;;;;;;;9.57;7.13;;;10.00;99.90;;;;;;5055900;28;20048;-76
2022/11/06 01:41:55;;;;;;;9.50;7.05;;;10.00;99.90;;;;;;5054208;28;20059;-76
2022/11/06 01:44:41;;;;;;;7.72;6.97;;;10.00;99.90;;;;;;5054059;28;20098;-76
2022/11/06 01:47:28;;;;;;;10.48;7.70;;;10.00;99.90;;;;;;5040974;28;20045;-75
2022/11/06 01:49:58;;;;;;;9.02;7.25;;;10.00;99.90;;;;;;5052904;28;20131;-76
2022/11/06 01:52:25;;;;;;;8.65;7.30;;;10.00;99.90;;;;;;5046185;28;20059;-76
2022/11/06 01:54:55;;;;;;;11.63;7.68;;;10.00;99.90;;;;;;5055737;28;20078;-77
2022/11/06 01:57:21;;;;;;;9.30;7.45;;;10.00;99.90;;;;;;5052135;28;20771;-77
2022/11/06 01:59:48;;;;;;;11.05;7.15;;;9.90;99.90;;;;;;5050306;28;20045;-77
2022/11/06 02:02:16;;;;;;;12.27;7.93;;;9.90;99.90;;;;;;5054888;28;20049;-76
2022/11/06 02:04:47;;;;;;;13.75;8.38;;;9.90;99.90;;;;;;5051858;28;20126;-76
2022/11/06 02:07:12;;;;;;;17.05;9.48;;;9.90;99.90;;;;;;5049914;28;20072;-76
2022/11/06 02:09:38;;;;;;;11.48;7.63;;;9.90;99.90;;;;;;5052343;28;20056;-76
2022/11/06 02:12:12;;;;;;;11.40;8.45;;;9.90;99.90;;;;;;5055217;28;20037;-76
2022/11/06 02:15:00;;;;;;;12.10;7.93;;;9.90;99.90;;;;;;5053390;28;20051;-76
2022/11/06 02:17:29;;;;;;;10.73;8.23;;;9.90;99.90;;;;;;5042213;28;20037;-76
2022/11/06 02:20:17;;;;;;;11.75;8.65;;;9.90;99.90;;;;;;5052586;28;20048;-75
2022/11/06 02:23:05;;;;;;;13.07;9.07;;;9.90;99.90;;;;;;5043668;28;20041;-75
2022/11/06 02:25:46;;;;;;;14.00;8.20;;;9.90;99.90;;;;;;5053798;28;20067;-76
2022/11/06 02:28:33;;;;;;;11.23;9.23;;;9.90;99.90;;;;;;5053438;28;20087;-75
2022/11/06 02:31:04;;;;;;;13.05;8.48;;;9.90;99.90;;;;;;5051341;28;20048;-75
2022/11/06 02:33:35;;;;;;;11.27;8.32;;;9.90;99.90;;;;;;5046611;28;20057;-74
2022/11/06 02:36:09;;;;;;;10.55;8.13;;;9.90;99.90;;;;;;5027506;28;20053;-74
2022/11/06 02:38:44;;;;;;;10.65;8.98;;;9.90;99.90;;;;;;5044848;28;20783;-74
2022/11/06 02:41:17;;;;;;;10.43;8.68;;;9.90;99.90;;;;;;5043299;28;20921;-74
2022/11/06 02:43:48;;;;;;;11.20;9.85;;;9.80;99.90;;;;;;5053540;28;20051;-74
2022/11/06 02:46:19;;;;;;;9.73;8.80;;;9.80;99.90;;;;;;5041360;28;20124;-74
2022/11/06 02:48:49;;;;;;;11.25;8.63;;;9.90;99.90;;;;;;5041413;28;20088;-75
2022/11/06 02:51:20;;;;;;;12.65;9.55;;;9.80;99.90;;;;;;5050216;28;20301;-75
2022/11/06 02:53:47;;;;;;;13.90;9.40;;;9.90;99.90;;;;;;5051982;28;20088;-75
2022/11/06 02:56:19;;;;;;;12.43;10.13;;;9.80;99.90;;;;;;5050620;28;20842;-75
2022/11/06 02:58:57;;;;;;;13.57;9.50;;;9.80;99.90;;;;;;5047674;28;20057;-75
2022/11/06 03:01:28;;;;;;;13.38;9.70;;;9.80;99.90;;;;;;5042114;28;20055;-75
2022/11/06 03:04:07;;;;;;;14.55;10.57;;;9.70;99.90;;;;;;5051299;28;20074;-75
2022/11/06 03:06:37;;;;;;;13.85;9.07;;;9.80;99.90;;;;;;5044053;28;21110;-75
2022/11/06 03:09:14;;;;;;;13.57;10.32;;;9.80;99.90;;;;;;5053666;28;20484;-75
2022/11/06 03:11:40;;;;;;;12.25;9.45;;;9.80;99.90;;;;;;5047805;28;20048;-75
2022/11/06 03:14:11;;;;;;;12.80;9.80;;;9.80;99.90;;;;;;5045923;28;20861;-75
2022/11/06 03:16:46;;;;;;;11.95;8.55;;;9.80;99.90;;;;;;5052475;28;20029;-74
2022/11/06 03:19:30;;;;;;;14.60;8.60;;;9.70;99.90;;;;;;5055677;28;20143;-74
2022/11/06 03:22:36;;;;;;;14.77;9.45;;;9.70;99.90;;;;;;5044492;28;20049;-74
2022/11/06 03:25:17;;;;;;;14.13;9.50;;;9.70;99.90;;;;;;5052702;28;20052;-74
2022/11/06 03:27:58;;;;;;;13.65;9.25;;;9.70;99.90;;;;;;5051573;28;20477;-74
2022/11/06 03:30:24;;;;;;;12.80;9.60;;;9.70;99.90;;;;;;5042113;28;20059;-74
2022/11/06 03:32:59;;;;;;;11.38;9.13;;;9.70;99.90;;;;;;5066201;28;20721;-75
2022/11/06 03:35:33;;;;;;;11.80;8.70;;;9.70;99.90;;;;;;5051838;28;20063;-74
2022/11/06 03:38:05;;;;;;;14.52;9.38;;;9.70;99.90;;;;;;5039976;28;20040;-74
2022/11/06 03:40:35;;;;;;;11.80;9.32;;;9.70;99.90;;;;;;5054235;28;20055;-75
2022/11/06 03:43:04;;;;;;;17.75;8.18;;;9.60;99.90;;;;;;5047117;28;20045;-75
2022/11/06 03:45:32;;;;;;;11.65;9.70;;;9.60;99.90;;;;;;5051824;28;20049;-74
2022/11/06 03:48:00;;;;;;;9.50;8.38;;;9.60;99.90;;;;;;5049357;28;20362;-75
2022/11/06 03:50:45;;;;;;;10.40;8.40;;;9.70;99.90;;;;;;5052459;28;20055;-75
2022/11/06 03:53:18;;;;;;;11.15;9.00;;;9.60;99.90;;;;;;5050615;28;20587;-75
2022/11/06 03:55:50;;;;;;;11.45;8.45;;;9.60;99.90;;;;;;5044547;28;20106;-75
2022/11/06 03:58:27;;;;;;;10.18;9.18;;;9.60;99.90;;;;;;5046754;28;20158;-75
2022/11/06 04:00:55;;;;;;;12.25;8.70;;;9.60;99.90;;;;;;5048274;28;20586;-75
2022/11/06 04:03:35;;;;;;;12.93;9.90;;;9.60;99.90;;;;;;5053624;28;20036;-75
2022/11/06 04:06:24;;;;;;;13.05;8.73;;;9.60;99.90;;;;;;5053461;28;20045;-75
2022/11/06 04:14:25;;;;;;;13.23;9.57;;;9.60;99.90;;;;;;5053528;28;20155;-75
2022/11/06 04:16:55;;;;;;;9.88;8.52;;;9.70;99.90;;;;;;5042955;28;20041;-75
2022/11/06 04:19:22;;;;;;;12.32;8.23;;;9.70;99.90;;;;;;5041150;28;20087;-75
2022/11/06 04:22:13;;;;;;;12.15;8.27;;;9.70;99.90;;;;;;5049777;28;20153;-75
2022/11/06 04:27:33;;;;;;;10.93;7.95;;;9.70;99.90;;;;;;5037498;28;20056;-75
2022/11/06 04:30:02;;;;;;;7.57;6.63;;;9.70;99.90;;;;;;5049459;28;20048;-75
2022/11/06 04:32:39;;;;;;;11.10;7.88;;;9.70;99.90;;;;;;5049995;28;21294;-75
2022/11/06 04:35:14;;;;;;;10.30;8.18;;;9.70;99.90;;;;;;5048731;28;20045;-75
2022/11/06 04:37:56;;;;;;;10.63;7.13;;;9.70;99.90;;;;;;5052509;28;20090;-75
2022/11/06 04:40:34;;;;;;;8.00;6.90;;;9.70;99.90;;;;;;5043643;28;20668;-75
2022/11/06 04:43:10;;;;;;;13.30;7.78;;;9.70;99.90;;;;;;5054211;28;20053;-75
2022/11/06 04:45:40;;;;;;;11.95;7.63;;;9.70;99.90;;;;;;5046773;28;20161;-76
2022/11/06 04:48:07;;;;;;;11.02;7.50;;;9.70;99.90;;;;;;5054116;28;20056;-75
2022/11/06 04:50:40;;;;;;;11.23;8.35;;;9.70;99.90;;;;;;5043415;28;20666;-75
2022/11/06 04:53:10;;;;;;;8.50;7.43;;;9.70;99.90;;;;;;5043444;28;20450;-75
2022/11/06 04:55:55;;;;;;;9.85;7.75;;;9.70;99.90;;;;;;5042478;28;20052;-75
2022/11/06 04:58:20;;;;;;;9.23;7.00;;;9.70;99.90;;;;;;5039226;28;20053;-75
2022/11/06 05:00:49;;;;;;;8.75;7.05;;;9.70;99.90;;;;;;5041148;28;20048;-75
2022/11/06 05:03:15;;;;;;;9.07;7.05;;;9.70;99.90;;;;;;5042931;28;20056;-75
2022/11/06 05:05:41;;;;;;;8.90;6.65;;;9.80;99.90;;;;;;5048476;28;20056;-75
2022/11/06 05:08:13;;;;;;;12.43;6.93;;;9.80;99.90;;;;;;5040866;28;20057;-76
2022/11/06 05:10:39;;;;;;;8.82;7.03;;;9.70;99.90;;;;;;5046541;28;20128;-76
2022/11/06 05:13:05;;;;;;;9.57;7.03;;;9.70;99.90;;;;;;5047294;28;20051;-75
2022/11/06 05:15:31;;;;;;;11.13;6.85;;;9.70;99.90;;;;;;5051082;28;20058;-75
2022/11/06 05:17:57;;;;;;;8.90;6.65;;;9.80;99.90;;;;;;5062839;28;20400;-75
2022/11/06 05:20:23;;;;;;;9.70;6.45;;;9.80;99.90;;;;;;5054410;28;20045;-75
2022/11/06 05:23:01;;;;;;;11.68;6.68;;;9.80;99.90;;;;;;5051480;28;20367;-75
2022/11/06 05:25:32;;;;;;;11.55;6.53;;;9.80;99.90;;;;;;5055693;28;20045;-75
2022/11/06 05:28:00;;;;;;;7.80;6.05;;;9.80;99.90;;;;;;5042076;28;20132;-75
2022/11/06 05:30:26;;;;;;;7.82;5.72;;;9.80;99.90;;;;;;5045701;28;20041;-75
2022/11/06 05:32:52;;;;;;;10.75;6.97;;;9.80;99.90;;;;;;5052981;28;20705;-76
2022/11/06 05:35:19;;;;;;;9.75;5.93;;;9.80;99.90;;;;;;5052923;28;20055;-77
2022/11/06 05:37:45;;;;;;;8.20;6.38;;;9.80;99.90;;;;;;5045440;28;20036;-75
2022/11/06 05:40:11;;;;;;;6.68;5.97;;;9.80;99.90;;;;;;5048015;28;20052;-75
2022/11/06 05:42:39;;;;;;;9.02;5.65;;;9.80;99.90;;;;;;5049861;28;20149;-75
2022/11/06 05:45:05;;;;;;;9.40;6.07;;;9.80;99.90;;;;;;5048816;28;20052;-75
2022/11/06 05:47:31;;;;;;;6.45;5.38;;;9.90;99.90;;;;;;5054547;28;20122;-75
2022/11/06 05:49:57;;;;;;;9.60;5.57;;;9.90;99.90;;;;;;5046824;28;20044;-76
2022/11/06 05:52:22;;;;;;;9.23;6.07;;;9.80;99.90;;;;;;5054246;28;20055;-75
2022/11/06 05:54:48;;;;;;;8.95;6.57;;;9.90;99.90;;;;;;5048814;28;20151;-75
2022/11/06 05:57:14;;;;;;;8.48;7.40;;;9.90;99.90;;;;;;5047629;28;20124;-75
2022/11/06 05:59:40;;;;;;;7.55;5.65;;;9.80;99.90;;;;;;5046889;28;20572;-75
2022/11/06 06:02:06;;;;;;;6.38;5.47;;;9.80;99.90;;;;;;5049303;28;20079;-75
2022/11/06 06:04:32;;;;;;;8.77;5.35;;;9.80;99.90;;;;;;5045912;28;20041;-76
2022/11/06 06:06:58;;;;;;;6.45;5.50;;;9.80;99.90;;;;;;5053005;28;20849;-75
2022/11/06 06:09:23;;;;;;;8.70;5.40;;;9.80;99.90;;;;;;5049726;28;20133;-76
2022/11/06 06:11:51;;;;;;;8.55;5.10;;;9.80;99.90;;;;;;5048464;28;20865;-75
2022/11/06 06:14:17;;;;;;;13.02;5.32;;;9.80;99.90;;;;;;5046465;28;20476;-76
2022/11/06 06:16:43;;;;;;;9.35;5.03;;;9.80;99.90;;;;;;5053312;28;20048;-75
2022/11/06 06:19:09;;;;;;;7.32;5.63;;;9.80;99.90;;;;;;5040076;28;20580;-75
2022/11/06 06:21:35;;;;;;;10.23;4.63;;;9.80;99.90;;;;;;5047788;28;20135;-75
2022/11/06 06:24:02;;;;;;;6.18;4.40;;;9.80;99.90;;;;;;5044557;28;20088;-75
2022/11/06 06:26:28;;;;;;;7.30;4.60;;;9.80;99.90;;;;;;5053753;28;20084;-75
2022/11/06 06:28:54;;;;;;;7.47;5.10;;;9.70;99.90;;;;;;5045421;28;20246;-75
2022/11/06 06:31:20;;;;;;;6.40;4.82;;;9.80;99.90;;;;;;5045485;28;20079;-75
2022/11/06 06:33:45;;;;;;;6.30;4.13;;;10.10;99.90;;;;;;5044235;28;20456;-75
2022/11/06 06:36:11;;;;;;;10.65;5.35;;;9.80;99.90;;;;;;5047435;28;20047;-76
2022/11/06 06:38:37;;;;;;;6.80;4.38;;;9.80;99.90;;;;;;5052156;28;20044;-75
2022/11/06 06:41:04;;;;;;;8.10;5.53;;;9.90;99.90;;;;;;5054426;28;20051;-75
2022/11/06 06:43:30;;;;;;;8.88;5.03;;;9.90;99.90;;;;;;5051144;28;20049;-75
2022/11/06 06:46:01;;;;;;;10.00;5.28;;;9.80;99.90;;;;;;5056271;28;20043;-75
2022/11/06 06:48:27;;;;;;;9.07;5.03;;;9.90;99.90;;;;;;5044540;28;20044;-75
2022/11/06 06:50:57;;;;;;;7.25;4.93;;;9.80;99.90;;;;;;5043274;28;20574;-75
2022/11/06 06:53:23;;;;;;;8.32;4.78;;;9.80;99.90;;;;;;5048419;28;20135;-76
2022/11/06 06:55:49;;;;;;;10.10;4.28;;;9.90;99.90;;;;;;5048933;28;20109;-75
2022/11/06 06:58:14;;;;;;;6.63;4.90;;;9.90;99.90;;;;;;5045045;28;20869;-75
2022/11/06 07:00:40;;;;;;;9.90;4.65;;;9.90;99.90;;;;;;5039928;28;20049;-75
2022/11/06 07:03:06;;;;;;;7.68;4.38;;;10.00;99.90;;;;;;5047281;28;20833;-75
2022/11/06 07:05:32;;;;;;;8.30;4.57;;;10.00;99.90;;;;;;5046448;28;20878;-75
2022/11/06 07:07:58;;;;;;;7.50;4.70;;;10.10;99.90;;;;;;5049598;28;20088;-76
2022/11/06 07:10:23;;;;;;;7.72;4.93;;;10.10;99.90;;;;;;5049341;28;20132;-75
2022/11/06 07:12:49;;;;;;;8.00;4.35;;;10.20;99.90;;;;;;5040352;28;20045;-75
2022/11/06 07:15:15;;;;;;;10.20;4.38;;;10.20;99.90;;;;;;5041165;28;21550;-76
2022/11/06 07:17:40;;;;;;;8.88;3.97;;;10.20;99.90;;;;;;5041019;28;20446;-75
2022/11/06 07:20:07;;;;;;;7.85;4.45;;;10.20;99.90;;;;;;5046670;28;20052;-75
2022/11/06 07:22:33;;;;;;;7.15;4.50;;;10.30;99.90;;;;;;5052160;28;20639;-76
2022/11/06 07:24:59;;;;;;;6.90;4.28;;;10.40;99.90;;;;;;5047350;28;20053;-75
2022/11/06 07:27:25;;;;;;;7.32;3.92;;;10.40;99.90;;;;;;5045269;28;20143;-77
2022/11/06 07:29:51;;;;;;;6.18;4.50;;;10.40;99.90;;;;;;5048738;28;20079;-75
2022/11/06 07:32:17;;;;;;;5.97;4.13;;;10.40;99.90;;;;;;5048872;28;20152;-75
2022/11/06 07:34:42;;;;;;;8.18;3.70;;;10.40;99.90;;;;;;5043271;28;20544;-75
2022/11/06 07:37:08;;;;;;;4.88;3.22;;;10.50;99.90;;;;;;5038973;28;20172;-75
2022/11/06 07:39:34;;;;;;;5.90;3.55;;;10.50;99.90;;;;;;5047907;28;20073;-76
2022/11/06 07:41:59;;;;;;;8.98;4.00;;;10.60;99.90;;;;;;5041478;28;20533;-75
2022/11/06 07:44:25;;;;;;;7.15;3.67;;;10.70;99.90;;;;;;5045896;28;20055;-76
2022/11/06 07:46:51;;;;;;;7.25;3.60;;;10.80;99.90;;;;;;5047886;28;20076;-76
2022/11/06 07:49:16;;;;;;;6.30;3.35;;;10.80;99.90;;;;;;5045527;28;20044;-75
2022/11/06 07:51:43;;;;;;;4.40;3.10;;;10.80;99.90;;;;;;5052456;28;20083;-76
2022/11/06 07:54:11;;;;;;;10.25;3.28;;;10.80;99.90;;;;;;5050699;28;20112;-75
2022/11/06 07:56:37;;;;;;;8.63;3.80;;;10.90;99.90;;;;;;5048503;28;20125;-75
2022/11/06 07:59:03;;;;;;;5.82;2.78;;;10.90;99.90;;;;;;5052145;28;20048;-75
2022/11/06 08:01:30;;;;;;;5.63;3.88;;;10.90;99.90;;;;;;5055179;28;20046;-75
2022/11/06 08:03:56;;;;;;;4.43;3.28;;;10.80;99.90;;;;;;5048358;28;20492;-75
2022/11/06 08:06:21;;;;;;;6.38;3.25;;;10.90;99.90;;;;;;5048524;28;20938;-75
2022/11/06 08:08:48;;;;;;;6.13;3.33;;;10.80;99.90;;;;;;5051978;28;20508;-77
2022/11/06 08:11:13;;;;;;;5.13;4.28;;;10.70;99.90;;;;;;5044013;28;20037;-76
2022/11/06 08:13:39;;;;;;;11.30;3.42;;;10.70;99.90;;;;;;5045096;28;20087;-75
2022/11/06 08:16:07;;;;;;;4.93;2.90;;;10.70;99.90;;;;;;5042225;28;20056;-76
2022/11/06 08:18:33;;;;;;;7.55;2.83;;;10.70;99.90;;;;;;5046404;28;20786;-75
2022/11/06 08:20:59;;;;;;;6.82;3.55;;;10.70;99.90;;;;;;5050300;28;20048;-76
2022/11/06 08:23:25;;;;;;;6.78;3.15;;;10.60;99.90;;;;;;5048489;28;20182;-76
2022/11/06 08:26:00;;;;;;;4.93;3.53;;;10.70;99.90;;;;;;5043075;28;20237;-76
2022/11/06 08:28:26;;;;;;;6.05;3.13;;;10.60;99.90;;;;;;5050083;28;20040;-76
2022/11/06 08:30:52;;;;;;;5.35;2.80;;;10.60;99.90;;;;;;5045961;28;20106;-75
2022/11/06 08:33:19;;;;;;;8.02;3.28;;;10.60;99.90;;;;;;5043081;28;20045;-75
2022/11/06 08:35:45;;;;;;;4.75;2.67;;;10.60;99.90;;;;;;5046044;28;20040;-76
2022/11/06 08:38:11;;;;;;;5.63;2.92;;;10.60;99.90;;;;;;5040091;28;20099;-75
2022/11/06 08:40:38;;;;;;;8.77;3.20;;;10.60;99.90;;;;;;5046137;28;20049;-76
2022/11/06 08:43:06;;;;;;;3.05;2.75;;;10.60;99.90;;;;;;5045936;28;20304;-76
2022/11/06 08:45:37;;;;;;;7.63;3.10;;;10.60;99.90;;;;;;5044492;28;20119;-76
2022/11/06 08:48:03;;;;;;;3.20;2.55;;;10.50;99.90;;;;;;5046256;28;20042;-78
2022/11/06 08:50:30;;;;;;;6.38;3.33;;;10.60;99.90;;;;;;5045654;28;20110;-76
2022/11/06 08:52:57;;;;;;;8.50;3.17;;;10.50;99.90;;;;;;5051331;28;20064;-78
2022/11/06 08:55:23;;;;;;;6.50;4.20;;;10.50;99.90;;;;;;5047306;28;20047;-77
2022/11/06 08:57:49;;;;;;;7.85;2.80;;;10.50;99.90;;;;;;5049955;28;20389;-78
2022/11/06 09:00:15;;;;;;;8.57;2.95;;;10.50;99.90;;;;;;5051499;28;20131;-78
2022/11/06 09:02:41;;;;;;;4.80;2.80;;;10.60;99.90;;;;;;5030973;28;20739;-76
2022/11/06 09:05:07;;;;;;;4.93;2.83;;;10.60;99.90;;;;;;5055515;28;20060;-76
2022/11/06 09:07:33;;;;;;;6.10;2.72;;;10.60;99.90;;;;;;5052913;28;20060;-76
2022/11/06 09:09:58;;;;;;;5.22;3.03;;;10.70;99.90;;;;;;5047472;28;20052;-77
2022/11/06 09:12:24;;;;;;;5.15;2.60;;;10.60;99.90;;;;;;5049484;28;20698;-77
2022/11/06 09:14:50;;;;;;;5.35;2.97;;;10.70;99.90;;;;;;5043909;28;20493;-76
2022/11/06 09:17:17;;;;;;;8.23;2.70;;;10.70;99.90;;;;;;5051673;28;20140;-77
2022/11/06 09:19:43;;;;;;;5.07;3.03;;;10.70;99.90;;;;;;5052641;28;20063;-77
2022/11/06 09:22:09;;;;;;;5.72;3.13;;;10.80;99.90;;;;;;5052704;28;20756;-77
2022/11/06 09:24:35;;;;;;;4.35;3.30;;;10.80;99.90;;;;;;5049224;28;20052;-76
2022/11/06 09:27:00;;;;;;;6.90;2.65;;;11.00;99.90;;;;;;5046257;28;20033;-78
2022/11/06 09:29:26;;;;;;;4.95;2.38;;;11.20;99.90;;;;;;5041274;28;20548;-78
2022/11/06 09:31:53;;;;;;;4.50;2.70;;;11.30;99.90;;;;;;5049101;28;20056;-76
2022/11/06 09:34:19;;;;;;;4.57;2.33;;;11.40;99.90;;;;;;5049542;28;20072;-76
2022/11/06 09:36:44;;;;;;;6.13;2.42;;;11.40;99.90;;;;;;5049714;28;20583;-76
2022/11/06 09:39:10;;;;;;;5.63;3.55;;;11.50;99.90;;;;;;5052896;28;20052;-76
2022/11/06 09:41:45;;;;;;;4.78;2.53;;;11.50;99.90;;;;;;5048001;28;20084;-77
2022/11/06 09:44:19;;;;;;;3.00;2.60;;;11.60;99.90;;;;;;5052438;28;20586;-77
2022/11/06 09:46:46;;;;;;;3.55;2.72;;;11.70;99.90;;;;;;5047151;28;20045;-76
2022/11/06 09:49:24;;;;;;;3.72;2.42;;;11.90;99.90;;;;;;5049348;28;20888;-77
2022/11/06 09:52:04;;;;;;;5.18;2.53;;;12.10;99.90;;;;;;5045512;28;20575;-76
2022/11/06 09:54:45;;;;;;;4.60;3.25;;;12.20;99.90;;;;;;5050823;28;20584;-77
2022/11/06 09:57:27;;;;;;;4.53;2.25;;;12.30;99.90;;;;;;5049693;28;20049;-77
2022/11/06 09:59:54;;;;;;;4.65;3.22;;;12.50;99.90;;;;;;5048026;28;20067;-77
2022/11/06 10:02:39;;;;;;;8.80;2.30;;;12.70;99.90;;;;;;5055259;28;20044;-76
2022/11/06 10:05:10;;;;;;;3.00;2.00;;;12.70;99.90;;;;;;5047554;28;20059;-76
2022/11/06 10:07:39;;;;;;;7.25;2.58;;;12.60;99.90;;;;;;5049738;28;20141;-76
2022/11/06 10:10:10;;;;;;;7.68;2.17;;;12.50;99.90;;;;;;5050412;28;20241;-78
2022/11/06 10:12:54;;;;;;;3.22;2.03;;;12.40;99.90;;;;;;5051941;28;21227;-77
2022/11/06 10:15:32;;;;;;;7.32;2.67;;;12.30;99.90;;;;;;5050472;28;20400;-77
2022/11/06 10:18:05;;;;;;;4.30;3.05;;;12.30;99.90;;;;;;5047195;28;20400;-76
2022/11/06 10:20:35;;;;;;;;;;;12.40;99.90;;;;;;5052022;28;20049;-76
2022/11/06 10:23:09;;;;;;;3.58;2.03;;;12.40;99.90;;;;;;5045862;28;20400;-77
2022/11/06 10:26:09;;;;;;;3.75;2.20;;;12.50;99.90;;;;;;5047873;28;20056;-77
2022/11/06 10:28:52;;;;;;;6.72;2.08;;;12.60;99.90;;;;;;5049506;28;20055;-76
2022/11/06 10:31:27;;;;;;;3.70;2.40;;;12.70;99.90;;;;;;5047336;28;20044;-77
2022/11/06 10:34:03;;;;;;;4.53;2.03;;;12.70;99.90;;;;;;5043183;28;20452;-76
2022/11/06 10:36:47;;;;;;;6.88;2.25;;;12.70;99.90;;;;;;5050394;28;20128;-75
2022/11/06 10:39:22;;;;;;;6.93;2.30;;;12.70;99.90;;;;;;5044910;28;20102;-76
2022/11/06 10:41:57;;;;;;;5.10;1.90;;;12.70;99.90;;;;;;5044597;28;20056;-75
2022/11/06 10:44:30;;;;;;;4.22;1.70;;;12.70;99.90;;;;;;5047796;28;20160;-76
2022/11/06 10:47:17;;;;;;;3.00;2.05;;;12.70;99.90;;;;;;5055769;28;20048;-76
2022/11/06 10:49:59;;;;;;;3.28;2.25;;;12.70;99.90;;;;;;5050900;28;20075;-75
2022/11/06 10:52:35;;;;;;;4.93;2.40;;;12.70;99.90;;;;;;5043239;28;20143;-75
2022/11/06 10:55:32;;;;;;;2.88;1.63;;;12.70;99.90;;;;;;5042148;28;20077;-76
2022/11/06 10:58:04;;;;;;;2.40;1.77;;;12.70;99.90;;;;;;5044610;28;20160;-76
2022/11/06 11:00:32;;;;;;;2.63;2.35;;;12.70;99.90;;;;;;5043846;28;20084;-76
2022/11/06 11:03:05;;;;;;;4.97;2.15;;;12.70;99.90;;;;;;5046619;28;20488;-76
2022/11/06 11:05:40;;;;;;;5.40;2.60;;;12.60;99.90;;;;;;5046288;28;20052;-76
2022/11/06 11:08:26;;;;;;;4.70;2.47;;;12.70;99.90;;;;;;5046805;28;20064;-76
2022/11/06 11:10:59;;;;;;;4.03;2.03;;;12.70;99.90;;;;;;5042737;28;20068;-76
2022/11/06 11:13:25;;;;;;;3.25;2.58;;;12.80;99.90;;;;;;5044110;28;20678;-77
2022/11/06 11:15:50;;;;;;;3.25;1.77;;;12.70;99.90;;;;;;5049723;28;20048;-76
2022/11/06 11:18:30;;;;;;;2.67;2.15;;;12.70;99.90;;;;;;5045443;28;20048;-77
2022/11/06 11:21:17;;;;;;;4.32;2.20;;;12.70;99.90;;;;;;5043667;28;20049;-76
2022/11/06 11:23:44;;;;;;;3.35;2.50;;;12.60;99.90;;;;;;5046195;28;20049;-76
2022/11/06 11:26:23;;;;;;;4.85;2.08;;;12.60;99.90;;;;;;5053900;28;20053;-76
2022/11/06 11:28:52;;;;;;;3.83;2.95;;;12.50;99.90;;;;;;5038600;28;20055;-76
2022/11/06 11:31:19;;;;;;;5.13;2.00;;;12.30;99.90;;;;;;5045077;28;20044;-76
2022/11/06 11:33:55;;;;;;;5.53;2.22;;;12.40;99.90;;;;;;5043074;28;20044;-76
2022/11/06 11:36:21;;;;;;;3.97;2.20;;;12.30;99.90;;;;;;5046357;28;20050;-77
2022/11/06 11:38:47;;;;;;;5.07;2.22;;;12.20;99.90;;;;;;5047678;28;20055;-76
2022/11/06 11:41:24;;;;;;;3.97;1.90;;;12.20;99.90;;;;;;5048073;28;20045;-76
2022/11/06 11:44:13;;;;;;;4.35;2.10;;;12.10;99.90;;;;;;5044095;28;20521;-75
2022/11/06 11:46:54;;;;;;;3.42;2.05;;;12.20;99.90;;;;;;5052963;28;20041;-76
2022/11/06 11:49:27;;;;;;;6.47;2.17;;;12.10;99.90;;;;;;5043319;28;20049;-77
2022/11/06 11:51:54;;;;;;;2.88;2.00;;;12.10;99.90;;;;;;5048817;28;20044;-76
2022/11/06 11:54:25;;;;;;;2.75;2.17;;;12.10;99.90;;;;;;5047414;28;20060;-76
2022/11/06 11:56:55;;;;;;;4.55;2.75;;;12.10;99.90;;;;;;5049922;28;20044;-75
2022/11/06 11:59:53;;;;;;;5.03;2.72;;;12.20;99.90;;;;;;5046862;28;20697;-75
2022/11/06 12:02:42;;;;;;;4.15;2.13;;;12.20;99.90;;;;;;5036071;28;20056;-75
2022/11/06 12:05:13;;;;;;;4.10;1.90;;;12.20;99.90;;;;;;5046434;28;20049;-75
2022/11/06 12:07:52;;;;;;;4.38;2.58;;;12.30;99.90;;;;;;5049194;28;20075;-75
2022/11/06 12:10:27;;;;;;;5.95;2.05;;;12.40;99.90;;;;;;5049924;28;20041;-75
2022/11/06 12:12:54;;;;;;;4.60;2.28;;;12.50;99.90;;;;;;5039222;28;20483;-75
2022/11/06 12:15:32;;;;;;;6.22;2.38;;;12.60;99.90;;;;;;5040948;28;20163;-76
2022/11/06 12:18:08;;;;;;;7.72;2.70;;;12.60;99.90;;;;;;5049066;28;20044;-76
2022/11/06 12:20:49;;;;;;;5.63;2.47;;;12.70;99.90;;;;;;5046283;28;20143;-75
2022/11/06 12:23:44;;;;;;;4.57;2.45;;;12.70;99.90;;;;;;5039058;28;20741;-76
2022/11/06 12:26:27;;;;;;;3.10;2.05;;;12.80;99.90;;;;;;5038956;28;20128;-76
2022/11/06 12:28:58;;;;;;;4.25;2.80;;;12.90;99.90;;;;;;5041627;28;20059;-77
2022/11/06 12:31:26;;;;;;;4.03;2.55;;;12.90;99.90;;;;;;5040707;28;20170;-77
2022/11/06 12:33:55;;;;;;;5.28;2.13;;;13.10;99.90;;;;;;5049985;28;20052;-76
2022/11/06 12:36:24;;;;;;;5.60;2.45;;;13.10;99.90;;;;;;5043057;28;20607;-76
2022/11/06 12:38:58;;;;;;;6.03;2.90;;;13.30;99.90;;;;;;5044237;28;20055;-76
2022/11/06 12:41:32;;;;;;;;;;;13.50;99.90;;;;;;5045974;28;20052;-76
2022/11/06 12:43:58;;;;;;;1.65;1.55;;;13.50;99.90;;;;;;5044641;28;19924;-77
2022/11/06 12:46:45;;;;;;;3.70;2.22;;;13.50;99.90;;;;;;5049145;28;20079;-77
2022/11/06 12:49:34;;;;;;;4.65;1.70;;;13.50;99.90;;;;;;5040187;28;20580;-76
2022/11/06 12:52:26;;;;;;;4.50;1.73;;;13.60;99.90;;;;;;5044236;28;20456;-76
2022/11/06 12:55:16;;;;;;;6.57;2.47;;;13.50;99.90;;;;;;5044901;28;20048;-76
2022/11/06 12:58:03;;;;;;;5.45;2.30;;;13.60;99.90;;;;;;5043536;28;20045;-76
2022/11/06 13:01:05;;;;;;;4.05;2.58;;;13.60;99.90;;;;;;5046436;28;20592;-77
2022/11/06 13:03:34;;;;;;;3.13;1.50;;;13.40;99.90;;;;;;5050239;28;20049;-77
2022/11/06 13:06:14;;;;;;;4.43;1.90;;;13.20;99.90;;;;;;5045037;28;20051;-77
2022/11/06 13:08:59;;;;;;;2.65;1.90;;;13.20;99.90;;;;;;5047690;28;20511;-77
2022/11/06 13:11:42;;;;;;;4.90;2.30;;;13.10;99.90;;;;;;5046721;28;20045;-77
2022/11/06 13:14:13;;;;;;;3.60;1.80;;;13.00;99.90;;;;;;5044184;28;20076;-76
2022/11/06 13:16:42;;;;;;;3.10;1.88;;;12.90;99.90;;;;;;5047364;28;20055;-77
2022/11/06 13:19:27;;;;;;;3.55;1.60;;;12.90;99.90;;;;;;5043964;28;20095;-75